sensor_id;sensor_type;location;lat;lon;timestamp;P1;durP1;ratioP1;P2;durP2;ratioP2
32321;SDS011;61553;48.994;8.940;2023-03-29T00:01:25;4.72;;;2.08;;
32321;SDS011;61553;48.994;8.940;2023-03-29T00:03:55;3.75;;;1.95;;
32321;SDS011;61553;48.994;8.940;2023-03-29T00:06:21;4.90;;;2.00;;
32321;SDS011;61553;48.994;8.940;2023-03-29T00:08:48;4.78;;;1.90;;
32321;SDS011;61553;48.994;8.940;2023-03-29T00:11:20;3.58;;;1.95;;
32321;SDS011;61553;48.994;8.940;2023-03-29T00:13:46;6.57;;;2.20;;
32321;SDS011;61553;48.994;8.940;2023-03-29T00:16:13;4.40;;;2.15;;
32321;SDS011;61553;48.994;8.940;2023-03-29T00:18:39;3.90;;;1.92;;
32321;SDS011;61553;48.994;8.940;2023-03-29T00:21:05;3.50;;;1.65;;
32321;SDS011;61553;48.994;8.940;2023-03-29T00:23:31;3.92;;;1.85;;
32321;SDS011;61553;48.994;8.940;2023-03-29T00:25:58;3.25;;;1.65;;
32321;SDS011;61553;48.994;8.940;2023-03-29T00:28:24;4.40;;;1.80;;
32321;SDS011;61553;48.994;8.940;2023-03-29T00:30:50;4.50;;;1.88;;
32321;SDS011;61553;48.994;8.940;2023-03-29T00:33:16;4.35;;;2.00;;
32321;SDS011;61553;48.994;8.940;2023-03-29T00:35:46;5.07;;;1.80;;
32321;SDS011;61553;48.994;8.940;2023-03-29T00:38:13;5.53;;;1.92;;
32321;SDS011;61553;48.994;8.940;2023-03-29T00:40:44;3.58;;;1.67;;
32321;SDS011;61553;48.994;8.940;2023-03-29T00:43:13;4.78;;;1.60;;
32321;SDS011;61553;48.994;8.940;2023-03-29T00:45:40;3.70;;;1.70;;
32321;SDS011;61553;48.994;8.940;2023-03-29T00:48:07;4.43;;;2.03;;
32321;SDS011;61553;48.994;8.940;2023-03-29T00:50:45;5.07;;;2.42;;
32321;SDS011;61553;48.994;8.940;2023-03-29T00:53:19;4.28;;;1.98;;
32321;SDS011;61553;48.994;8.940;2023-03-29T00:55:48;5.95;;;2.03;;
32321;SDS011;61553;48.994;8.940;2023-03-29T00:58:20;4.15;;;2.00;;
32321;SDS011;61553;48.994;8.940;2023-03-29T01:00:49;3.92;;;1.67;;
32321;SDS011;61553;48.994;8.940;2023-03-29T01:03:17;5.18;;;2.35;;
32321;SDS011;61553;48.994;8.940;2023-03-29T01:05:49;6.38;;;2.35;;
32321;SDS011;61553;48.994;8.940;2023-03-29T01:08:23;4.28;;;2.15;;
32321;SDS011;61553;48.994;8.940;2023-03-29T01:10:59;3.95;;;2.05;;
32321;SDS011;61553;48.994;8.940;2023-03-29T01:13:37;3.92;;;2.20;;
32321;SDS011;61553;48.994;8.940;2023-03-29T01:16:04;3.60;;;2.08;;
32321;SDS011;61553;48.994;8.940;2023-03-29T01:18:31;5.47;;;2.03;;
32321;SDS011;61553;48.994;8.940;2023-03-29T01:23:34;10.80;;;4.88;;
32321;SDS011;61553;48.994;8.940;2023-03-29T01:28:43;11.70;;;4.40;;
32321;SDS011;61553;48.994;8.940;2023-03-29T01:31:12;8.75;;;3.53;;
32321;SDS011;61553;48.994;8.940;2023-03-29T01:33:41;5.07;;;2.00;;
32321;SDS011;61553;48.994;8.940;2023-03-29T01:36:12;5.20;;;1.98;;
32321;SDS011;61553;48.994;8.940;2023-03-29T01:41:06;4.63;;;1.88;;
32321;SDS011;61553;48.994;8.940;2023-03-29T01:43:35;3.65;;;1.92;;
32321;SDS011;61553;48.994;8.940;2023-03-29T01:51:28;5.07;;;1.95;;
32321;SDS011;61553;48.994;8.940;2023-03-29T01:53:57;3.70;;;1.88;;
32321;SDS011;61553;48.994;8.940;2023-03-29T01:56:25;3.95;;;1.83;;
32321;SDS011;61553;48.994;8.940;2023-03-29T01:58:56;5.65;;;2.42;;
32321;SDS011;61553;48.994;8.940;2023-03-29T02:03:52;4.30;;;1.83;;
32321;SDS011;61553;48.994;8.940;2023-03-29T02:06:21;3.28;;;1.60;;
32321;SDS011;61553;48.994;8.940;2023-03-29T02:08:48;3.83;;;2.03;;
32321;SDS011;61553;48.994;8.940;2023-03-29T02:11:16;6.20;;;1.90;;
32321;SDS011;61553;48.994;8.940;2023-03-29T02:13:42;3.75;;;1.90;;
32321;SDS011;61553;48.994;8.940;2023-03-29T02:16:09;3.45;;;1.67;;
32321;SDS011;61553;48.994;8.940;2023-03-29T02:18:36;4.70;;;2.53;;
32321;SDS011;61553;48.994;8.940;2023-03-29T02:21:03;6.95;;;2.40;;
32321;SDS011;61553;48.994;8.940;2023-03-29T02:23:30;3.30;;;1.83;;
32321;SDS011;61553;48.994;8.940;2023-03-29T02:26:00;4.35;;;2.17;;
32321;SDS011;61553;48.994;8.940;2023-03-29T02:28:27;5.78;;;2.17;;
32321;SDS011;61553;48.994;8.940;2023-03-29T02:31:07;6.63;;;2.72;;
32321;SDS011;61553;48.994;8.940;2023-03-29T02:39:05;8.07;;;2.22;;
32321;SDS011;61553;48.994;8.940;2023-03-29T02:41:32;4.88;;;2.30;;
32321;SDS011;61553;48.994;8.940;2023-03-29T02:43:59;5.72;;;2.53;;
32321;SDS011;61553;48.994;8.940;2023-03-29T02:46:26;6.75;;;2.40;;
32321;SDS011;61553;48.994;8.940;2023-03-29T02:48:52;5.03;;;2.50;;
32321;SDS011;61553;48.994;8.940;2023-03-29T02:51:20;9.52;;;2.25;;
32321;SDS011;61553;48.994;8.940;2023-03-29T02:53:48;4.93;;;2.70;;
32321;SDS011;61553;48.994;8.940;2023-03-29T02:56:16;4.18;;;2.40;;
32321;SDS011;61553;48.994;8.940;2023-03-29T02:58:43;5.47;;;2.47;;
32321;SDS011;61553;48.994;8.940;2023-03-29T03:01:09;7.30;;;2.88;;
32321;SDS011;61553;48.994;8.940;2023-03-29T03:03:35;7.35;;;2.90;;
32321;SDS011;61553;48.994;8.940;2023-03-29T03:06:01;10.25;;;3.20;;
32321;SDS011;61553;48.994;8.940;2023-03-29T03:08:27;5.78;;;3.13;;
32321;SDS011;61553;48.994;8.940;2023-03-29T03:10:53;6.03;;;2.95;;
32321;SDS011;61553;48.994;8.940;2023-03-29T03:13:19;5.68;;;3.22;;
32321;SDS011;61553;48.994;8.940;2023-03-29T03:15:45;5.65;;;2.83;;
32321;SDS011;61553;48.994;8.940;2023-03-29T03:18:13;6.38;;;3.15;;
32321;SDS011;61553;48.994;8.940;2023-03-29T03:20:40;6.50;;;3.20;;
32321;SDS011;61553;48.994;8.940;2023-03-29T03:23:06;7.72;;;3.22;;
32321;SDS011;61553;48.994;8.940;2023-03-29T03:25:34;7.18;;;3.67;;
32321;SDS011;61553;48.994;8.940;2023-03-29T03:28:00;7.97;;;3.58;;
32321;SDS011;61553;48.994;8.940;2023-03-29T03:30:26;9.15;;;4.32;;
32321;SDS011;61553;48.994;8.940;2023-03-29T03:32:53;8.45;;;4.55;;
32321;SDS011;61553;48.994;8.940;2023-03-29T03:35:19;7.32;;;3.53;;
32321;SDS011;61553;48.994;8.940;2023-03-29T03:37:46;5.47;;;3.08;;
32321;SDS011;61553;48.994;8.940;2023-03-29T03:40:12;5.93;;;2.90;;
32321;SDS011;61553;48.994;8.940;2023-03-29T03:42:39;6.50;;;3.10;;
32321;SDS011;61553;48.994;8.940;2023-03-29T03:45:05;8.20;;;3.47;;
32321;SDS011;61553;48.994;8.940;2023-03-29T03:47:32;10.48;;;3.50;;
32321;SDS011;61553;48.994;8.940;2023-03-29T03:49:58;6.95;;;3.33;;
32321;SDS011;61553;48.994;8.940;2023-03-29T03:52:25;5.63;;;3.20;;
32321;SDS011;61553;48.994;8.940;2023-03-29T03:54:51;7.20;;;3.15;;
32321;SDS011;61553;48.994;8.940;2023-03-29T03:57:17;7.63;;;2.90;;
32321;SDS011;61553;48.994;8.940;2023-03-29T03:59:43;8.02;;;2.67;;
32321;SDS011;61553;48.994;8.940;2023-03-29T04:02:09;4.93;;;2.83;;
32321;SDS011;61553;48.994;8.940;2023-03-29T04:04:35;8.32;;;3.20;;
32321;SDS011;61553;48.994;8.940;2023-03-29T04:07:01;5.72;;;2.70;;
32321;SDS011;61553;48.994;8.940;2023-03-29T04:09:31;5.20;;;2.50;;
32321;SDS011;61553;48.994;8.940;2023-03-29T04:11:58;6.32;;;4.03;;
32321;SDS011;61553;48.994;8.940;2023-03-29T04:14:24;5.80;;;3.00;;
32321;SDS011;61553;48.994;8.940;2023-03-29T04:16:51;6.82;;;3.05;;
32321;SDS011;61553;48.994;8.940;2023-03-29T04:19:17;6.68;;;2.97;;
32321;SDS011;61553;48.994;8.940;2023-03-29T04:21:44;7.00;;;3.22;;
32321;SDS011;61553;48.994;8.940;2023-03-29T04:24:12;6.25;;;3.20;;
32321;SDS011;61553;48.994;8.940;2023-03-29T04:26:38;5.15;;;3.28;;
32321;SDS011;61553;48.994;8.940;2023-03-29T04:29:04;5.13;;;2.60;;
32321;SDS011;61553;48.994;8.940;2023-03-29T04:31:31;5.82;;;2.65;;
32321;SDS011;61553;48.994;8.940;2023-03-29T04:33:57;5.07;;;2.40;;
32321;SDS011;61553;48.994;8.940;2023-03-29T04:36:23;5.05;;;2.58;;
32321;SDS011;61553;48.994;8.940;2023-03-29T04:38:50;6.15;;;3.08;;
32321;SDS011;61553;48.994;8.940;2023-03-29T04:41:19;5.35;;;2.85;;
32321;SDS011;61553;48.994;8.940;2023-03-29T04:43:45;6.07;;;2.58;;
32321;SDS011;61553;48.994;8.940;2023-03-29T04:46:12;6.57;;;2.67;;
32321;SDS011;61553;48.994;8.940;2023-03-29T04:48:38;6.65;;;3.75;;
32321;SDS011;61553;48.994;8.940;2023-03-29T04:51:04;8.35;;;3.35;;
32321;SDS011;61553;48.994;8.940;2023-03-29T04:53:31;7.32;;;3.10;;
32321;SDS011;61553;48.994;8.940;2023-03-29T04:55:57;8.75;;;3.20;;
32321;SDS011;61553;48.994;8.940;2023-03-29T04:58:23;6.50;;;3.03;;
32321;SDS011;61553;48.994;8.940;2023-03-29T05:00:50;7.25;;;3.92;;
32321;SDS011;61553;48.994;8.940;2023-03-29T05:03:16;8.40;;;3.78;;
32321;SDS011;61553;48.994;8.940;2023-03-29T05:05:42;22.90;;;10.73;;
32321;SDS011;61553;48.994;8.940;2023-03-29T05:08:08;15.63;;;6.82;;
32321;SDS011;61553;48.994;8.940;2023-03-29T05:10:34;18.95;;;9.73;;
32321;SDS011;61553;48.994;8.940;2023-03-29T05:13:01;17.70;;;8.88;;
32321;SDS011;61553;48.994;8.940;2023-03-29T05:15:28;14.50;;;7.80;;
32321;SDS011;61553;48.994;8.940;2023-03-29T05:17:55;12.15;;;6.70;;
32321;SDS011;61553;48.994;8.940;2023-03-29T05:20:22;16.65;;;7.88;;
32321;SDS011;61553;48.994;8.940;2023-03-29T05:22:48;10.15;;;5.60;;
32321;SDS011;61553;48.994;8.940;2023-03-29T05:25:15;9.63;;;6.72;;
32321;SDS011;61553;48.994;8.940;2023-03-29T05:27:42;11.13;;;6.70;;
32321;SDS011;61553;48.994;8.940;2023-03-29T05:30:09;10.13;;;5.72;;
32321;SDS011;61553;48.994;8.940;2023-03-29T05:32:36;11.82;;;4.63;;
32321;SDS011;61553;48.994;8.940;2023-03-29T05:35:02;9.45;;;5.05;;
32321;SDS011;61553;48.994;8.940;2023-03-29T05:37:29;9.13;;;4.78;;
32321;SDS011;61553;48.994;8.940;2023-03-29T05:39:57;7.07;;;3.90;;
32321;SDS011;61553;48.994;8.940;2023-03-29T05:42:23;6.15;;;3.20;;
32321;SDS011;61553;48.994;8.940;2023-03-29T05:44:49;10.32;;;3.75;;
32321;SDS011;61553;48.994;8.940;2023-03-29T05:47:15;6.85;;;3.33;;
32321;SDS011;61553;48.994;8.940;2023-03-29T05:49:41;6.00;;;3.00;;
32321;SDS011;61553;48.994;8.940;2023-03-29T05:52:07;14.07;;;5.55;;
32321;SDS011;61553;48.994;8.940;2023-03-29T05:54:33;11.38;;;4.82;;
32321;SDS011;61553;48.994;8.940;2023-03-29T05:57:00;11.10;;;4.50;;
32321;SDS011;61553;48.994;8.940;2023-03-29T05:59:26;9.55;;;4.65;;
32321;SDS011;61553;48.994;8.940;2023-03-29T06:01:53;11.27;;;5.63;;
32321;SDS011;61553;48.994;8.940;2023-03-29T06:04:19;8.73;;;4.15;;
32321;SDS011;61553;48.994;8.940;2023-03-29T06:06:45;15.02;;;6.03;;
32321;SDS011;61553;48.994;8.940;2023-03-29T06:09:12;17.00;;;7.40;;
32321;SDS011;61553;48.994;8.940;2023-03-29T06:11:39;11.07;;;5.85;;
32321;SDS011;61553;48.994;8.940;2023-03-29T06:14:05;9.80;;;5.45;;
32321;SDS011;61553;48.994;8.940;2023-03-29T06:16:31;11.00;;;5.57;;
32321;SDS011;61553;48.994;8.940;2023-03-29T06:18:57;17.50;;;7.75;;
32321;SDS011;61553;48.994;8.940;2023-03-29T06:21:23;13.32;;;6.82;;
32321;SDS011;61553;48.994;8.940;2023-03-29T06:23:51;22.92;;;11.43;;
32321;SDS011;61553;48.994;8.940;2023-03-29T06:26:17;17.60;;;7.05;;
32321;SDS011;61553;48.994;8.940;2023-03-29T06:28:44;19.77;;;10.00;;
32321;SDS011;61553;48.994;8.940;2023-03-29T06:31:10;17.80;;;8.88;;
32321;SDS011;61553;48.994;8.940;2023-03-29T06:33:37;15.07;;;6.65;;
32321;SDS011;61553;48.994;8.940;2023-03-29T06:36:04;13.30;;;6.07;;
32321;SDS011;61553;48.994;8.940;2023-03-29T06:38:30;14.00;;;7.07;;
32321;SDS011;61553;48.994;8.940;2023-03-29T06:41:02;10.65;;;6.13;;
32321;SDS011;61553;48.994;8.940;2023-03-29T06:43:28;12.77;;;6.60;;
32321;SDS011;61553;48.994;8.940;2023-03-29T06:45:55;11.65;;;6.10;;
32321;SDS011;61553;48.994;8.940;2023-03-29T06:48:21;12.75;;;6.15;;
32321;SDS011;61553;48.994;8.940;2023-03-29T06:50:47;17.15;;;10.05;;
32321;SDS011;61553;48.994;8.940;2023-03-29T06:53:14;19.05;;;10.23;;
32321;SDS011;61553;48.994;8.940;2023-03-29T06:55:40;18.92;;;9.18;;
32321;SDS011;61553;48.994;8.940;2023-03-29T06:58:07;15.48;;;7.00;;
32321;SDS011;61553;48.994;8.940;2023-03-29T07:00:33;8.38;;;4.53;;
32321;SDS011;61553;48.994;8.940;2023-03-29T07:03:05;6.70;;;3.20;;
32321;SDS011;61553;48.994;8.940;2023-03-29T07:05:33;7.57;;;3.63;;
32321;SDS011;61553;48.994;8.940;2023-03-29T07:08:06;8.43;;;3.60;;
32321;SDS011;61553;48.994;8.940;2023-03-29T07:10:34;81.63;;;35.33;;
32321;SDS011;61553;48.994;8.940;2023-03-29T07:13:02;28.48;;;13.82;;
32321;SDS011;61553;48.994;8.940;2023-03-29T07:15:30;22.63;;;10.70;;
32321;SDS011;61553;48.994;8.940;2023-03-29T07:17:57;12.05;;;5.78;;
32321;SDS011;61553;48.994;8.940;2023-03-29T07:20:23;12.45;;;5.90;;
32321;SDS011;61553;48.994;8.940;2023-03-29T07:22:49;14.40;;;6.28;;
32321;SDS011;61553;48.994;8.940;2023-03-29T07:25:16;8.73;;;3.72;;
32321;SDS011;61553;48.994;8.940;2023-03-29T07:27:43;7.95;;;3.80;;
32321;SDS011;61553;48.994;8.940;2023-03-29T07:30:10;7.55;;;3.47;;
32321;SDS011;61553;48.994;8.940;2023-03-29T07:32:37;6.55;;;3.03;;
32321;SDS011;61553;48.994;8.940;2023-03-29T07:35:07;9.40;;;5.03;;
32321;SDS011;61553;48.994;8.940;2023-03-29T07:37:33;14.00;;;7.50;;
32321;SDS011;61553;48.994;8.940;2023-03-29T07:40:02;12.75;;;6.20;;
32321;SDS011;61553;48.994;8.940;2023-03-29T07:42:36;7.03;;;3.78;;
32321;SDS011;61553;48.994;8.940;2023-03-29T07:45:02;12.45;;;4.65;;
32321;SDS011;61553;48.994;8.940;2023-03-29T07:47:29;9.93;;;6.47;;
32321;SDS011;61553;48.994;8.940;2023-03-29T07:49:55;9.52;;;6.25;;
32321;SDS011;61553;48.994;8.940;2023-03-29T07:52:21;9.05;;;5.00;;
32321;SDS011;61553;48.994;8.940;2023-03-29T07:54:47;13.00;;;6.18;;
32321;SDS011;61553;48.994;8.940;2023-03-29T07:57:13;8.02;;;4.43;;
32321;SDS011;61553;48.994;8.940;2023-03-29T07:59:40;8.70;;;4.45;;
32321;SDS011;61553;48.994;8.940;2023-03-29T08:02:05;6.68;;;4.10;;
32321;SDS011;61553;48.994;8.940;2023-03-29T08:04:33;11.25;;;4.57;;
32321;SDS011;61553;48.994;8.940;2023-03-29T08:06:58;6.65;;;4.20;;
32321;SDS011;61553;48.994;8.940;2023-03-29T08:09:24;7.28;;;4.03;;
32321;SDS011;61553;48.994;8.940;2023-03-29T08:11:51;6.38;;;3.92;;
32321;SDS011;61553;48.994;8.940;2023-03-29T08:14:17;6.90;;;4.15;;
32321;SDS011;61553;48.994;8.940;2023-03-29T08:16:43;8.25;;;3.95;;
32321;SDS011;61553;48.994;8.940;2023-03-29T08:19:09;9.02;;;3.95;;
32321;SDS011;61553;48.994;8.940;2023-03-29T08:21:34;8.48;;;4.30;;
32321;SDS011;61553;48.994;8.940;2023-03-29T08:24:00;8.30;;;4.50;;
32321;SDS011;61553;48.994;8.940;2023-03-29T08:26:26;6.85;;;4.07;;
32321;SDS011;61553;48.994;8.940;2023-03-29T08:28:51;9.38;;;4.28;;
32321;SDS011;61553;48.994;8.940;2023-03-29T08:31:17;10.77;;;5.30;;
32321;SDS011;61553;48.994;8.940;2023-03-29T08:33:43;10.98;;;4.43;;
32321;SDS011;61553;48.994;8.940;2023-03-29T08:36:08;11.27;;;4.93;;
32321;SDS011;61553;48.994;8.940;2023-03-29T08:38:34;8.45;;;5.22;;
32321;SDS011;61553;48.994;8.940;2023-03-29T08:41:00;7.85;;;4.72;;
32321;SDS011;61553;48.994;8.940;2023-03-29T08:49:13;7.97;;;4.10;;
32321;SDS011;61553;48.994;8.940;2023-03-29T08:51:48;6.75;;;3.47;;
32321;SDS011;61553;48.994;8.940;2023-03-29T08:54:20;10.20;;;5.65;;
32321;SDS011;61553;48.994;8.940;2023-03-29T08:56:52;9.15;;;4.22;;
32321;SDS011;61553;48.994;8.940;2023-03-29T08:59:24;9.07;;;4.47;;
32321;SDS011;61553;48.994;8.940;2023-03-29T09:01:54;7.15;;;3.92;;
32321;SDS011;61553;48.994;8.940;2023-03-29T09:04:23;7.35;;;3.38;;
32321;SDS011;61553;48.994;8.940;2023-03-29T09:06:51;7.85;;;3.63;;
32321;SDS011;61553;48.994;8.940;2023-03-29T09:09:19;9.63;;;3.90;;
32321;SDS011;61553;48.994;8.940;2023-03-29T09:17:04;12.63;;;4.60;;
32321;SDS011;61553;48.994;8.940;2023-03-29T09:19:42;5.80;;;3.15;;
32321;SDS011;61553;48.994;8.940;2023-03-29T09:28:22;4.93;;;2.58;;
32321;SDS011;61553;48.994;8.940;2023-03-29T09:31:02;8.07;;;2.63;;
32321;SDS011;61553;48.994;8.940;2023-03-29T09:33:39;6.30;;;2.22;;
32321;SDS011;61553;48.994;8.940;2023-03-29T09:36:19;6.25;;;2.45;;
32321;SDS011;61553;48.994;8.940;2023-03-29T09:38:46;8.43;;;2.90;;
32321;SDS011;61553;48.994;8.940;2023-03-29T09:43:46;5.90;;;2.50;;
32321;SDS011;61553;48.994;8.940;2023-03-29T09:46:17;4.85;;;2.17;;
32321;SDS011;61553;48.994;8.940;2023-03-29T09:48:49;8.77;;;2.30;;
32321;SDS011;61553;48.994;8.940;2023-03-29T09:51:15;7.50;;;2.53;;
32321;SDS011;61553;48.994;8.940;2023-03-29T09:53:44;4.53;;;2.85;;
32321;SDS011;61553;48.994;8.940;2023-03-29T09:56:10;5.57;;;2.50;;
32321;SDS011;61553;48.994;8.940;2023-03-29T09:58:36;5.82;;;2.70;;
32321;SDS011;61553;48.994;8.940;2023-03-29T10:01:03;7.57;;;3.28;;
32321;SDS011;61553;48.994;8.940;2023-03-29T10:03:33;16.58;;;5.05;;
32321;SDS011;61553;48.994;8.940;2023-03-29T10:06:01;8.52;;;3.47;;
32321;SDS011;61553;48.994;8.940;2023-03-29T10:08:35;6.53;;;2.17;;
32321;SDS011;61553;48.994;8.940;2023-03-29T10:11:19;4.97;;;2.20;;
32321;SDS011;61553;48.994;8.940;2023-03-29T10:13:49;3.63;;;1.60;;
32321;SDS011;61553;48.994;8.940;2023-03-29T10:16:20;3.92;;;2.00;;
32321;SDS011;61553;48.994;8.940;2023-03-29T10:18:47;6.53;;;2.47;;
32321;SDS011;61553;48.994;8.940;2023-03-29T10:21:15;3.65;;;1.60;;
32321;SDS011;61553;48.994;8.940;2023-03-29T10:23:44;3.60;;;1.80;;
32321;SDS011;61553;48.994;8.940;2023-03-29T10:29:01;4.43;;;1.60;;
32321;SDS011;61553;48.994;8.940;2023-03-29T10:31:29;4.50;;;2.33;;
32321;SDS011;61553;48.994;8.940;2023-03-29T10:34:01;5.05;;;1.80;;
32321;SDS011;61553;48.994;8.940;2023-03-29T10:36:29;5.30;;;1.95;;
32321;SDS011;61553;48.994;8.940;2023-03-29T10:38:58;4.05;;;1.73;;
32321;SDS011;61553;48.994;8.940;2023-03-29T10:41:26;4.15;;;1.80;;
32321;SDS011;61553;48.994;8.940;2023-03-29T10:43:53;6.05;;;2.25;;
32321;SDS011;61553;48.994;8.940;2023-03-29T10:46:27;3.65;;;1.95;;
32321;SDS011;61553;48.994;8.940;2023-03-29T10:48:59;4.93;;;1.90;;
32321;SDS011;61553;48.994;8.940;2023-03-29T10:51:30;5.53;;;2.20;;
32321;SDS011;61553;48.994;8.940;2023-03-29T10:53:58;5.88;;;2.20;;
32321;SDS011;61553;48.994;8.940;2023-03-29T11:04:45;4.40;;;2.38;;
32321;SDS011;61553;48.994;8.940;2023-03-29T11:18:27;8.50;;;2.17;;
32321;SDS011;61553;48.994;8.940;2023-03-29T11:39:59;5.10;;;2.40;;
32321;SDS011;61553;48.994;8.940;2023-03-29T11:42:32;7.72;;;2.30;;
32321;SDS011;61553;48.994;8.940;2023-03-29T11:45:00;4.90;;;1.70;;
32321;SDS011;61553;48.994;8.940;2023-03-29T11:47:33;6.75;;;2.90;;
32321;SDS011;61553;48.994;8.940;2023-03-29T11:50:13;5.97;;;2.40;;
32321;SDS011;61553;48.994;8.940;2023-03-29T11:52:43;4.13;;;1.73;;
32321;SDS011;61553;48.994;8.940;2023-03-29T11:55:19;8.30;;;2.30;;
32321;SDS011;61553;48.994;8.940;2023-03-29T11:57:54;7.50;;;1.98;;
32321;SDS011;61553;48.994;8.940;2023-03-29T12:00:26;3.90;;;1.88;;
32321;SDS011;61553;48.994;8.940;2023-03-29T12:05:38;5.30;;;1.67;;
32321;SDS011;61553;48.994;8.940;2023-03-29T12:08:31;6.35;;;2.33;;
32321;SDS011;61553;48.994;8.940;2023-03-29T12:11:02;5.25;;;1.88;;
32321;SDS011;61553;48.994;8.940;2023-03-29T12:13:37;3.50;;;1.60;;
32321;SDS011;61553;48.994;8.940;2023-03-29T12:16:21;4.28;;;1.90;;
32321;SDS011;61553;48.994;8.940;2023-03-29T12:18:49;5.63;;;2.60;;
32321;SDS011;61553;48.994;8.940;2023-03-29T12:23:48;8.90;;;5.40;;
32321;SDS011;61553;48.994;8.940;2023-03-29T12:31:50;4.00;;;2.30;;
32321;SDS011;61553;48.994;8.940;2023-03-29T12:40:16;6.15;;;1.50;;
32321;SDS011;61553;48.994;8.940;2023-03-29T12:42:45;7.20;;;1.23;;
32321;SDS011;61553;48.994;8.940;2023-03-29T12:45:43;4.43;;;1.35;;
32321;SDS011;61553;48.994;8.940;2023-03-29T12:48:17;4.43;;;1.25;;
32321;SDS011;61553;48.994;8.940;2023-03-29T12:50:53;3.53;;;1.20;;
32321;SDS011;61553;48.994;8.940;2023-03-29T13:03:39;4.25;;;1.80;;
32321;SDS011;61553;48.994;8.940;2023-03-29T13:08:42;6.93;;;2.70;;
32321;SDS011;61553;48.994;8.940;2023-03-29T13:13:49;5.65;;;3.00;;
32321;SDS011;61553;48.994;8.940;2023-03-29T13:16:17;6.70;;;2.67;;
32321;SDS011;61553;48.994;8.940;2023-03-29T13:29:54;2.38;;;1.38;;
32321;SDS011;61553;48.994;8.940;2023-03-29T13:32:49;4.78;;;1.48;;
32321;SDS011;61553;48.994;8.940;2023-03-29T13:38:21;5.65;;;1.20;;
32321;SDS011;61553;48.994;8.940;2023-03-29T13:40:57;4.00;;;1.27;;
32321;SDS011;61553;48.994;8.940;2023-03-29T13:43:29;6.80;;;1.60;;
32321;SDS011;61553;48.994;8.940;2023-03-29T13:48:27;3.70;;;1.30;;
32321;SDS011;61553;48.994;8.940;2023-03-29T13:50:59;3.97;;;1.40;;
32321;SDS011;61553;48.994;8.940;2023-03-29T13:53:56;3.88;;;1.20;;
32321;SDS011;61553;48.994;8.940;2023-03-29T13:57:04;6.85;;;1.52;;
32321;SDS011;61553;48.994;8.940;2023-03-29T13:59:38;4.22;;;1.23;;
32321;SDS011;61553;48.994;8.940;2023-03-29T14:05:14;3.63;;;1.15;;
32321;SDS011;61553;48.994;8.940;2023-03-29T14:07:54;4.40;;;1.50;;
32321;SDS011;61553;48.994;8.940;2023-03-29T14:10:30;6.10;;;1.85;;
32321;SDS011;61553;48.994;8.940;2023-03-29T14:13:11;3.78;;;1.40;;
32321;SDS011;61553;48.994;8.940;2023-03-29T14:15:49;4.22;;;1.38;;
32321;SDS011;61553;48.994;8.940;2023-03-29T14:18:36;3.88;;;1.27;;
32321;SDS011;61553;48.994;8.940;2023-03-29T14:21:05;5.40;;;1.67;;
32321;SDS011;61553;48.994;8.940;2023-03-29T14:23:32;4.88;;;2.40;;
32321;SDS011;61553;48.994;8.940;2023-03-29T14:26:07;5.63;;;1.80;;
32321;SDS011;61553;48.994;8.940;2023-03-29T14:28:45;5.68;;;1.73;;
32321;SDS011;61553;48.994;8.940;2023-03-29T14:31:18;10.70;;;2.72;;
32321;SDS011;61553;48.994;8.940;2023-03-29T14:33:50;3.47;;;1.98;;
32321;SDS011;61553;48.994;8.940;2023-03-29T14:36:20;6.10;;;2.10;;
32321;SDS011;61553;48.994;8.940;2023-03-29T14:38:50;5.95;;;3.65;;
32321;SDS011;61553;48.994;8.940;2023-03-29T14:41:18;13.30;;;4.80;;
32321;SDS011;61553;48.994;8.940;2023-03-29T14:43:45;5.20;;;2.50;;
32321;SDS011;61553;48.994;8.940;2023-03-29T14:46:11;5.72;;;1.80;;
32321;SDS011;61553;48.994;8.940;2023-03-29T14:48:41;6.30;;;1.58;;
32321;SDS011;61553;48.994;8.940;2023-03-29T14:51:07;4.45;;;1.50;;
32321;SDS011;61553;48.994;8.940;2023-03-29T14:53:33;3.08;;;1.55;;
32321;SDS011;61553;48.994;8.940;2023-03-29T14:56:02;4.60;;;1.33;;
32321;SDS011;61553;48.994;8.940;2023-03-29T14:58:32;6.13;;;1.50;;
32321;SDS011;61553;48.994;8.940;2023-03-29T15:01:06;5.18;;;1.88;;
32321;SDS011;61553;48.994;8.940;2023-03-29T15:03:53;4.00;;;1.20;;
32321;SDS011;61553;48.994;8.940;2023-03-29T15:06:20;6.75;;;1.50;;
32321;SDS011;61553;48.994;8.940;2023-03-29T15:08:48;5.03;;;1.40;;
32321;SDS011;61553;48.994;8.940;2023-03-29T15:11:16;4.20;;;1.50;;
32321;SDS011;61553;48.994;8.940;2023-03-29T15:13:44;4.18;;;1.23;;
32321;SDS011;61553;48.994;8.940;2023-03-29T15:16:14;6.53;;;1.38;;
32321;SDS011;61553;48.994;8.940;2023-03-29T15:19:19;12.32;;;2.13;;
32321;SDS011;61553;48.994;8.940;2023-03-29T15:21:49;15.00;;;2.05;;
32321;SDS011;61553;48.994;8.940;2023-03-29T15:24:19;10.93;;;2.20;;
32321;SDS011;61553;48.994;8.940;2023-03-29T15:27:03;13.13;;;2.20;;
32321;SDS011;61553;48.994;8.940;2023-03-29T15:29:39;12.10;;;4.07;;
32321;SDS011;61553;48.994;8.940;2023-03-29T15:32:07;8.15;;;4.10;;
32321;SDS011;61553;48.994;8.940;2023-03-29T15:34:45;6.43;;;1.92;;
32321;SDS011;61553;48.994;8.940;2023-03-29T15:37:21;9.75;;;3.67;;
32321;SDS011;61553;48.994;8.940;2023-03-29T15:39:47;13.13;;;3.08;;
32321;SDS011;61553;48.994;8.940;2023-03-29T15:42:12;7.38;;;2.17;;
32321;SDS011;61553;48.994;8.940;2023-03-29T15:44:38;12.05;;;2.63;;
32321;SDS011;61553;48.994;8.940;2023-03-29T15:47:10;5.78;;;2.33;;
32321;SDS011;61553;48.994;8.940;2023-03-29T15:49:36;4.80;;;1.92;;
32321;SDS011;61553;48.994;8.940;2023-03-29T15:52:02;6.57;;;2.00;;
32321;SDS011;61553;48.994;8.940;2023-03-29T15:54:28;5.22;;;1.52;;
32321;SDS011;61553;48.994;8.940;2023-03-29T15:56:58;3.97;;;1.90;;
32321;SDS011;61553;48.994;8.940;2023-03-29T15:59:26;5.53;;;2.05;;
32321;SDS011;61553;48.994;8.940;2023-03-29T16:01:52;7.47;;;2.00;;
32321;SDS011;61553;48.994;8.940;2023-03-29T16:04:19;8.48;;;3.03;;
32321;SDS011;61553;48.994;8.940;2023-03-29T16:06:46;8.00;;;1.75;;
32321;SDS011;61553;48.994;8.940;2023-03-29T16:09:14;3.58;;;2.00;;
32321;SDS011;61553;48.994;8.940;2023-03-29T16:11:41;7.03;;;2.00;;
32321;SDS011;61553;48.994;8.940;2023-03-29T16:16:46;10.38;;;2.15;;
32321;SDS011;61553;48.994;8.940;2023-03-29T16:19:12;6.50;;;2.08;;
32321;SDS011;61553;48.994;8.940;2023-03-29T16:21:38;4.65;;;1.80;;
32321;SDS011;61553;48.994;8.940;2023-03-29T16:24:04;5.78;;;1.92;;
32321;SDS011;61553;48.994;8.940;2023-03-29T16:26:31;7.93;;;1.95;;
32321;SDS011;61553;48.994;8.940;2023-03-29T16:28:57;4.95;;;1.70;;
32321;SDS011;61553;48.994;8.940;2023-03-29T16:31:23;7.00;;;2.20;;
32321;SDS011;61553;48.994;8.940;2023-03-29T16:33:50;6.32;;;2.28;;
32321;SDS011;61553;48.994;8.940;2023-03-29T16:36:17;4.20;;;1.58;;
32321;SDS011;61553;48.994;8.940;2023-03-29T16:38:42;11.10;;;1.80;;
32321;SDS011;61553;48.994;8.940;2023-03-29T16:41:10;6.32;;;2.60;;
32321;SDS011;61553;48.994;8.940;2023-03-29T16:43:39;8.38;;;2.95;;
32321;SDS011;61553;48.994;8.940;2023-03-29T16:46:05;4.95;;;1.98;;
32321;SDS011;61553;48.994;8.940;2023-03-29T16:48:32;10.77;;;2.20;;
32321;SDS011;61553;48.994;8.940;2023-03-29T16:50:58;7.50;;;3.03;;
32321;SDS011;61553;48.994;8.940;2023-03-29T16:53:24;6.20;;;2.20;;
32321;SDS011;61553;48.994;8.940;2023-03-29T16:55:52;3.38;;;2.13;;
32321;SDS011;61553;48.994;8.940;2023-03-29T16:58:18;7.38;;;2.15;;
32321;SDS011;61553;48.994;8.940;2023-03-29T17:00:43;6.72;;;2.05;;
32321;SDS011;61553;48.994;8.940;2023-03-29T17:03:09;9.85;;;1.73;;
32321;SDS011;61553;48.994;8.940;2023-03-29T17:05:36;4.60;;;2.17;;
32321;SDS011;61553;48.994;8.940;2023-03-29T17:08:05;10.13;;;3.00;;
32321;SDS011;61553;48.994;8.940;2023-03-29T17:10:32;12.32;;;4.25;;
32321;SDS011;61553;48.994;8.940;2023-03-29T17:12:58;9.93;;;3.53;;